Ever Delight — 3FCB8 — position and weather

sailwx.info

Track history (hours):
 
Tides and Currents Weather Stations Pressure Air Temp Water Temp Dewpoint Dewpoint Depression Visibility Wind Speed Wind Dir Waves Ship Positions

Ever Delight

Last reported at 2016-Jun-23 21:33 UTC. Time now 2016-Jun-29 02:00 UTC.
Position N 08°54' W 079°32'.

Type: Ship (hazmat cat D). MMSI: 351936000.

Date/timePositionNaut miles runAvg speedWind from/ knotsBaromVisibWave heightAir tempDewpointWater temp
2016-Jun-23 21:33N 08°54' W 079°32'7 5.1
2016-Jun-23 20:09N 08°60' W 079°35'0 0.7
2016-Jun-23 19:33N 09°00' W 079°36'2 1.4
2016-Jun-23 18:24N 09°01' W 079°37'2 2.4
2016-Jun-23 17:33N 09°02' W 079°39'7 6.6
2016-Jun-23 16:32N 09°07' W 079°43'5 5.2
2016-Jun-23 15:33N 09°08' W 079°48'7 6.7
2016-Jun-23 14:33N 09°12' W 079°54'5 4.7
2016-Jun-23 13:33N 09°16' W 079°55'0 0.5
2016-Jun-23 12:33N 09°17' W 079°55'1 0.8
2016-Jun-23 11:33N 09°17' W 079°55'6 5.6
2016-Jun-23 10:33N 09°23' W 079°55'5 5.2
2016-Jun-23 09:33N 09°27' W 079°51'0 0.2
2016-Jun-23 08:32N 09°27' W 079°51'0 0.0
2016-Jun-23 07:33N 09°27' W 079°51'0 0.1
2016-Jun-23 05:32N 09°27' W 079°51'0 0.0
2016-Jun-23 04:32N 09°27' W 079°51'0 0.0
2016-Jun-23 03:31N 09°27' W 079°51'0 0.0
2016-Jun-23 02:32N 09°27' W 079°51'0 0.0
2016-Jun-23 01:32N 09°27' W 079°51'0 0.0
2016-Jun-23 00:31N 09°27' W 079°51'0 0.0
2016-Jun-22 23:32N 09°27' W 079°51'0 0.1
2016-Jun-22 22:32N 09°27' W 079°51'0 0.0
2016-Jun-22 21:31N 09°27' W 079°51'0 0.1
2016-Jun-22 20:33N 09°27' W 079°51'4 4.0
2016-Jun-22 19:33N 09°26' W 079°55'0 0.3
2016-Jun-22 18:34N 09°26' W 079°55'4 4.3
2016-Jun-22 17:33N 09°22' W 079°53'0 0.4
2016-Jun-22 16:32N 09°22' W 079°53'0 0.0
2016-Jun-22 15:32N 09°22' W 079°53'0 0.0
2016-Jun-22 14:32N 09°22' W 079°53'0 0.0
2016-Jun-22 13:33N 09°22' W 079°53'0 0.0
2016-Jun-22 12:33N 09°22' W 079°53'0 0.0
2016-Jun-22 11:33N 09°22' W 079°53'0 0.0
2016-Jun-22 10:33N 09°22' W 079°53'0 0.0
2016-Jun-22 09:34N 09°22' W 079°53'0 0.0
2016-Jun-22 08:33N 09°22' W 079°53'0 0.0
2016-Jun-22 07:33N 09°22' W 079°53'0 0.0
2016-Jun-22 06:33N 09°22' W 079°53'0 0.0
2016-Jun-22 05:34N 09°22' W 079°53'0 0.0
2016-Jun-22 04:33N 09°22' W 079°53'0 0.0
2016-Jun-22 03:33N 09°22' W 079°53'0 0.0
2016-Jun-22 02:31N 09°22' W 079°53'0 0.0
2016-Jun-22 01:34N 09°22' W 079°53'0 0.0
2016-Jun-22 00:30N 09°22' W 079°53'0 0.0
2016-Jun-21 23:33N 09°22' W 079°53'0 0.0
2016-Jun-21 22:34N 09°22' W 079°53'0 0.0
2016-Jun-21 21:33N 09°22' W 079°53'5 5.0
2016-Jun-21 20:33N 09°27' W 079°53'10 9.6
2016-Jun-21 19:34N 09°37' W 079°51'1616.3
2016-Jun-21 18:34N 09°51' W 079°44'  
2016-Jun-16 17:21N 39°35' W 072°48'2915.8
2016-Jun-16 15:32N 39°56' W 073°14'3315.7
2016-Jun-16 13:26N 40°21' W 073°43'1113.0
2016-Jun-16 12:33N 40°29' W 073°53'1413.7
2016-Jun-16 11:33N 40°39' W 074°05'3 2.9
2016-Jun-16 10:32N 40°41' W 074°09'0 0.0
2016-Jun-16 09:32N 40°41' W 074°09'0 0.0
2016-Jun-16 08:32N 40°41' W 074°09'0 0.0
2016-Jun-16 07:32N 40°41' W 074°09'0 0.0
2016-Jun-16 06:32N 40°41' W 074°09'0 0.0
2016-Jun-16 05:33N 40°41' W 074°09'0 0.0
2016-Jun-16 04:32N 40°41' W 074°09'0 0.0
2016-Jun-16 03:32N 40°41' W 074°09'0 0.0
2016-Jun-16 02:32N 40°41' W 074°09'0 0.0
2016-Jun-16 01:32N 40°41' W 074°09'0 0.0
2016-Jun-16 00:32N 40°41' W 074°09'0 0.0
2016-Jun-15 23:32N 40°41' W 074°08'0 0.0
2016-Jun-15 22:32N 40°41' W 074°09'0 0.3
2016-Jun-15 21:33N 40°40' W 074°08'4 3.8
2016-Jun-15 20:33N 40°39' W 074°04'1211.8
2016-Jun-15 19:33N 40°29' W 073°55'10 9.9
2016-Jun-15 18:33N 40°21' W 073°46'10 9.5
2016-Jun-15 17:33N 40°12' W 073°44'1414.6
2016-Jun-15 16:33N 39°58' W 073°42'1716.8
2016-Jun-15 15:33N 39°41' W 073°43'1919.2
2016-Jun-15 14:33N 39°22' W 073°49'1919.4
2016-Jun-15 13:33N 39°04' W 073°56'1919.3
2016-Jun-15 12:33N 38°46' W 074°06'2020.0
2016-Jun-15 11:33N 38°29' W 074°19'2020.4
2016-Jun-15 10:33N 38°11' W 074°31'2620.4
2016-Jun-15 09:16N 37°47' W 074°46'1520.6
2016-Jun-15 08:34N 37°34' W 074°54'5919.5
2016-Jun-15 05:33N 36°49' W 075°41'1716.9
2016-Jun-15 04:33N 36°57' W 075°60'1614.7
2016-Jun-15 03:27N 36°58' W 076°20'5 6.1
2016-Jun-15 02:34N 36°53' W 076°21'0 0.0
2016-Jun-15 01:32N 36°53' W 076°21'0 0.0
2016-Jun-15 00:32N 36°53' W 076°21'0 0.0
2016-Jun-14 23:32N 36°53' W 076°21'0 0.0
2016-Jun-14 22:32N 36°53' W 076°21'0 0.0
2016-Jun-14 21:32N 36°53' W 076°21'0 0.0
2016-Jun-14 20:32N 36°53' W 076°21'0 0.0
2016-Jun-14 19:32N 36°53' W 076°21'0 0.0
2016-Jun-14 18:32N 36°53' W 076°21'0 0.0
2016-Jun-14 17:32N 36°53' W 076°21'0 0.0
2016-Jun-14 16:26N 36°53' W 076°21'5 5.6
2016-Jun-14 15:33N 36°57' W 076°20'1211.8
2016-Jun-14 14:33N 36°58' W 076°05'5 5.2
2016-Jun-14 13:33N 37°03' W 076°05'5817.2
2016-Jun-14 10:12N 38°01' W 076°13'4119.9
2016-Jun-14 08:09N 38°40' W 076°25'1119.1
2016-Jun-14 07:33N 38°52' W 076°24'2411.9
2016-Jun-14 05:33N 39°14' W 076°33'1 1.1
2016-Jun-14 04:32N 39°15' W 076°33'0 0.0
2016-Jun-14 03:32N 39°15' W 076°33'0 0.0
2016-Jun-14 02:32N 39°15' W 076°33'0 0.0
2016-Jun-14 01:32N 39°15' W 076°33'0 0.0
2016-Jun-14 00:32N 39°15' W 076°33'0 0.0
2016-Jun-13 23:32N 39°15' W 076°33'0 0.0
2016-Jun-13 22:32N 39°15' W 076°33'  
Track history (hours):
 
Tides and Currents Weather Stations Pressure Air Temp Water Temp Dewpoint Dewpoint Depression Visibility Wind Speed Wind Dir Waves Ship Positions

Ever Delight

Last reported at 2016-Jun-23 21:33 UTC. Time now 2016-Jun-29 02:00 UTC.
Position N 08°54' W 079°32'.

Type: Ship (hazmat cat D). MMSI: 351936000.

Date/timePositionNaut miles runAvg speedWind from/ knotsBaromVisibWave heightAir tempDewpointWater temp
2016-Jun-23 21:33N 08°54' W 079°32'7 5.1
2016-Jun-23 20:09N 08°60' W 079°35'0 0.7
2016-Jun-23 19:33N 09°00' W 079°36'2 1.4
2016-Jun-23 18:24N 09°01' W 079°37'2 2.4
2016-Jun-23 17:33N 09°02' W 079°39'7 6.6
2016-Jun-23 16:32N 09°07' W 079°43'5 5.2
2016-Jun-23 15:33N 09°08' W 079°48'7 6.7
2016-Jun-23 14:33N 09°12' W 079°54'5 4.7
2016-Jun-23 13:33N 09°16' W 079°55'0 0.5
2016-Jun-23 12:33N 09°17' W 079°55'1 0.8
2016-Jun-23 11:33N 09°17' W 079°55'6 5.6
2016-Jun-23 10:33N 09°23' W 079°55'5 5.2
2016-Jun-23 09:33N 09°27' W 079°51'0 0.2
2016-Jun-23 08:32N 09°27' W 079°51'0 0.0
2016-Jun-23 07:33N 09°27' W 079°51'0 0.1
2016-Jun-23 05:32N 09°27' W 079°51'0 0.0
2016-Jun-23 04:32N 09°27' W 079°51'0 0.0
2016-Jun-23 03:31N 09°27' W 079°51'0 0.0
2016-Jun-23 02:32N 09°27' W 079°51'0 0.0
2016-Jun-23 01:32N 09°27' W 079°51'0 0.0
2016-Jun-23 00:31N 09°27' W 079°51'0 0.0
2016-Jun-22 23:32N 09°27' W 079°51'0 0.1
2016-Jun-22 22:32N 09°27' W 079°51'0 0.0
2016-Jun-22 21:31N 09°27' W 079°51'0 0.1
2016-Jun-22 20:33N 09°27' W 079°51'4 4.0
2016-Jun-22 19:33N 09°26' W 079°55'0 0.3
2016-Jun-22 18:34N 09°26' W 079°55'4 4.3
2016-Jun-22 17:33N 09°22' W 079°53'0 0.4
2016-Jun-22 16:32N 09°22' W 079°53'0 0.0
2016-Jun-22 15:32N 09°22' W 079°53'0 0.0
2016-Jun-22 14:32N 09°22' W 079°53'0 0.0
2016-Jun-22 13:33N 09°22' W 079°53'0 0.0
2016-Jun-22 12:33N 09°22' W 079°53'0 0.0
2016-Jun-22 11:33N 09°22' W 079°53'0 0.0
2016-Jun-22 10:33N 09°22' W 079°53'0 0.0
2016-Jun-22 09:34N 09°22' W 079°53'0 0.0
2016-Jun-22 08:33N 09°22' W 079°53'0 0.0
2016-Jun-22 07:33N 09°22' W 079°53'0 0.0
2016-Jun-22 06:33N 09°22' W 079°53'0 0.0
2016-Jun-22 05:34N 09°22' W 079°53'0 0.0
2016-Jun-22 04:33N 09°22' W 079°53'0 0.0
2016-Jun-22 03:33N 09°22' W 079°53'0 0.0
2016-Jun-22 02:31N 09°22' W 079°53'0 0.0
2016-Jun-22 01:34N 09°22' W 079°53'0 0.0
2016-Jun-22 00:30N 09°22' W 079°53'0 0.0
2016-Jun-21 23:33N 09°22' W 079°53'0 0.0
2016-Jun-21 22:34N 09°22' W 079°53'0 0.0
2016-Jun-21 21:33N 09°22' W 079°53'5 5.0
2016-Jun-21 20:33N 09°27' W 079°53'10 9.6
2016-Jun-21 19:34N 09°37' W 079°51'1616.3
2016-Jun-21 18:34N 09°51' W 079°44'  
2016-Jun-16 17:21N 39°35' W 072°48'2915.8
2016-Jun-16 15:32N 39°56' W 073°14'3315.7
2016-Jun-16 13:26N 40°21' W 073°43'1113.0
2016-Jun-16 12:33N 40°29' W 073°53'1413.7
2016-Jun-16 11:33N 40°39' W 074°05'3 2.9
2016-Jun-16 10:32N 40°41' W 074°09'0 0.0
2016-Jun-16 09:32N 40°41' W 074°09'0 0.0
2016-Jun-16 08:32N 40°41' W 074°09'0 0.0
2016-Jun-16 07:32N 40°41' W 074°09'0 0.0
2016-Jun-16 06:32N 40°41' W 074°09'0 0.0
2016-Jun-16 05:33N 40°41' W 074°09'0 0.0
2016-Jun-16 04:32N 40°41' W 074°09'0 0.0
2016-Jun-16 03:32N 40°41' W 074°09'0 0.0
2016-Jun-16 02:32N 40°41' W 074°09'0 0.0
2016-Jun-16 01:32N 40°41' W 074°09'0 0.0
2016-Jun-16 00:32N 40°41' W 074°09'0 0.0
2016-Jun-15 23:32N 40°41' W 074°08'0 0.0
2016-Jun-15 22:32N 40°41' W 074°09'0 0.3
2016-Jun-15 21:33N 40°40' W 074°08'4 3.8
2016-Jun-15 20:33N 40°39' W 074°04'1211.8
2016-Jun-15 19:33N 40°29' W 073°55'10 9.9
2016-Jun-15 18:33N 40°21' W 073°46'10 9.5
2016-Jun-15 17:33N 40°12' W 073°44'1414.6
2016-Jun-15 16:33N 39°58' W 073°42'1716.8
2016-Jun-15 15:33N 39°41' W 073°43'1919.2
2016-Jun-15 14:33N 39°22' W 073°49'1919.4
2016-Jun-15 13:33N 39°04' W 073°56'1919.3
2016-Jun-15 12:33N 38°46' W 074°06'2020.0
2016-Jun-15 11:33N 38°29' W 074°19'2020.4
2016-Jun-15 10:33N 38°11' W 074°31'2620.4
2016-Jun-15 09:16N 37°47' W 074°46'1520.6
2016-Jun-15 08:34N 37°34' W 074°54'5919.5
2016-Jun-15 05:33N 36°49' W 075°41'1716.9
2016-Jun-15 04:33N 36°57' W 075°60'1614.7
2016-Jun-15 03:27N 36°58' W 076°20'5 6.1
2016-Jun-15 02:34N 36°53' W 076°21'0 0.0
2016-Jun-15 01:32N 36°53' W 076°21'0 0.0
2016-Jun-15 00:32N 36°53' W 076°21'0 0.0
2016-Jun-14 23:32N 36°53' W 076°21'0 0.0
2016-Jun-14 22:32N 36°53' W 076°21'0 0.0
2016-Jun-14 21:32N 36°53' W 076°21'0 0.0
2016-Jun-14 20:32N 36°53' W 076°21'0 0.0
2016-Jun-14 19:32N 36°53' W 076°21'0 0.0
2016-Jun-14 18:32N 36°53' W 076°21'0 0.0
2016-Jun-14 17:32N 36°53' W 076°21'0 0.0
2016-Jun-14 16:26N 36°53' W 076°21'5 5.6
2016-Jun-14 15:33N 36°57' W 076°20'1211.8
2016-Jun-14 14:33N 36°58' W 076°05'5 5.2
2016-Jun-14 13:33N 37°03' W 076°05'5817.2
2016-Jun-14 10:12N 38°01' W 076°13'4119.9
2016-Jun-14 08:09N 38°40' W 076°25'1119.1
2016-Jun-14 07:33N 38°52' W 076°24'2411.9
2016-Jun-14 05:33N 39°14' W 076°33'1 1.1
2016-Jun-14 04:32N 39°15' W 076°33'0 0.0
2016-Jun-14 03:32N 39°15' W 076°33'0 0.0
2016-Jun-14 02:32N 39°15' W 076°33'0 0.0
2016-Jun-14 01:32N 39°15' W 076°33'0 0.0
2016-Jun-14 00:32N 39°15' W 076°33'0 0.0
2016-Jun-13 23:32N 39°15' W 076°33'0 0.0
2016-Jun-13 22:32N 39°15' W 076°33'  

Dump ship's entire track history